Flight Track Log - Related Links

Times and Time Zones

All times are in EDT time to prevent confusion due to time zone crossing. See the N568TT flight status page for this flight to view local times or setup timezone preferences in your user account.

Time Position Orientation Groundspeed Altitude Reporting Facility
EDT Latitude Longitude Course Direction KTS MPH feet Rate Location/Type
Wed 02:07:22 PM 33.6225 -116.2494 304° West 167 192 7,000  Level Los Angeles Center
Wed 02:08:25 PM 33.6725 -116.2672 344° North 183 211 8,900 1,440 Climbing Los Angeles Center
Wed 02:09:27 PM 33.7200 -116.2947 334° Northwest 185 213 10,000 1,210 Climbing Los Angeles Center
Wed 02:10:29 PM 33.7919 -116.3381 333° Northwest 228 262 11,400 1,548 Climbing Los Angeles Center
Wed 02:11:31 PM 33.8458 -116.3703 334° Northwest 226 260 13,200 1,742 Climbing Los Angeles Center
Wed 02:12:00 PM 33.9611 -116.7578 304° West  Level Estimated
Wed 02:12:33 PM 33.8961 -116.3992 335° Northwest 203 234 15,000  Level Los Angeles Center
Wed 02:13:35 PM 33.9489 -116.4303 334° Northwest 209 241 16,000 1,065 Climbing Los Angeles Center
Wed 02:14:37 PM 34.0100 -116.4647 335° Northwest 239 275 17,200 1,258 Climbing Los Angeles Center
Wed 02:15:39 PM 34.0667 -116.4967 335° Northwest 226 260 18,600 1,440 Climbing Los Angeles Center
Wed 02:16:42 PM 34.1269 -116.5325 334° Northwest 215 247 20,200 1,296 Climbing Los Angeles Center
Wed 02:17:44 PM 34.1833 -116.5533 343° North 219 252 21,300 871 Climbing Los Angeles Center
Wed 02:18:46 PM 34.2203 -116.6083 309° West 217 250 22,000 339 Climbing Los Angeles Center
Wed 02:19:48 PM 34.2469 -116.7000 289° West 238 274 22,000  Level Los Angeles Center
Wed 02:20:50 PM 34.2703 -116.7811 289° West 253 291 22,000  Level Los Angeles Center
Wed 02:21:52 PM 34.2928 -116.8639 288° West 257 296 22,000  Level Los Angeles Center
Wed 02:22:54 PM 34.3172 -116.9469 290° West 258 297 22,000  Level Los Angeles Center
Wed 02:23:56 PM 34.3406 -117.0275 289° West 259 298 22,000  Level Los Angeles Center
Wed 02:24:58 PM 34.3625 -117.1117 288° West 261 300 22,000  Level Los Angeles Center
Wed 02:26:01 PM 34.3919 -117.2081 290° West 258 297 22,000  Level Los Angeles Center
Wed 02:27:03 PM 34.4136 -117.2922 287° West 259 298 22,000  Level Los Angeles Center
Wed 02:28:05 PM 34.4367 -117.3756 289° West 261 300 22,000  Level Los Angeles Center
Wed 02:29:07 PM 34.4617 -117.4586 290° West 262 302 22,000  Level Los Angeles Center
Wed 02:30:09 PM 34.4836 -117.5414 288° West 260 299 22,000  Level Los Angeles Center
Wed 02:31:11 PM 34.5072 -117.6231 289° West 259 298 22,000  Level Los Angeles Center
Wed 02:32:13 PM 34.5347 -117.7219 289° West 257 296 22,000  Level Los Angeles Center
Wed 02:33:15 PM 34.5578 -117.8047 289° West 259 298 22,000  Level Los Angeles Center
Wed 02:34:18 PM 34.5825 -117.8883 290° West 258 297 22,000  Level Los Angeles Center
Wed 02:35:19 PM 34.6000 -117.9528 288° West 258 297 22,000  Level Los Angeles Center
Wed 02:36:22 PM 34.6267 -118.0525 288° West 258 297 22,000  Level Los Angeles Center
Wed 02:37:24 PM 34.6636 -118.1281 301° West 259 298 22,000  Level Los Angeles Center
Wed 02:38:26 PM 34.7058 -118.1994 306° West 258 297 22,000  Level Los Angeles Center
Wed 02:39:28 PM 34.7556 -118.2886 304° West 264 304 22,000  Level Los Angeles Center
Wed 02:40:30 PM 34.7958 -118.3611 304° West 260 299 22,000  Level Los Angeles Center
Wed 02:41:32 PM 34.8361 -118.4333 304° West 259 298 22,000 48 Level Los Angeles Center
Wed 02:42:35 PM 34.8794 -118.5131 304° West 259 298 22,100 48 Climbing Los Angeles Center
Wed 02:43:37 PM 34.9153 -118.5753 305° West 253 291 22,100 -48 Level Los Angeles Center
Wed 02:44:39 PM 34.9650 -118.6628 305° West 260 299 22,000 -48 Descending Los Angeles Center
Wed 02:45:41 PM 35.0042 -118.7358 303° West 258 297 22,000  Level Los Angeles Center
Wed 02:46:43 PM 35.0661 -118.7856 327° Northwest 266 306 22,000  Level Los Angeles Center
Wed 02:47:45 PM 35.1258 -118.8356 326° Northwest 263 303 22,000 48 Level Los Angeles Center
Wed 02:48:47 PM 35.1636 -118.9111 301° West 257 296 22,100  Climbing Los Angeles Center
Wed 02:49:49 PM 35.2092 -118.9972 303° West 253 291 22,000 -48 Descending Los Angeles Center
Wed 02:50:51 PM 35.2475 -119.0700 303° West 253 291 22,000  Level Los Angeles Center
Wed 02:51:54 PM 35.2847 -119.1433 302° West 253 291 22,000  Level Los Angeles Center
Wed 02:52:56 PM 35.3219 -119.2175 302° West 255 293 22,000  Level Los Angeles Center
Wed 02:53:58 PM 35.3606 -119.2894 303° West 254 292 22,000  Level Los Angeles Center
Wed 02:55:00 PM 35.3981 -119.3639 302° West 257 296 22,000  Level Los Angeles Center
Wed 02:55:34 PM 35.4186 -119.4064 301° West 253 291 22,000  Level Oakland Center
Wed 02:56:36 PM 35.4578 -119.4792 303° West 256 295 22,000  Level Oakland Center
Wed 02:57:37 PM 35.5033 -119.5681 302° West 257 296 22,000  Level Oakland Center
Wed 02:58:39 PM 35.5419 -119.6439 302° West 261 300 22,000  Level Oakland Center
Wed 03:00:11 PM 35.5975 -119.7519 302° West 264 304 22,000  Level Los Angeles Center
Wed 03:00:41 PM 35.6194 -119.7967 301° West 265 305 22,000  Level Oakland Center
Wed 03:01:43 PM 35.6589 -119.8722 303° West 265 305 22,000  Level Oakland Center
Wed 03:02:44 PM 35.6978 -119.9492 302° West 266 306 22,000  Level Oakland Center
Wed 03:03:45 PM 35.7364 -120.0256 302° West 265 305 22,000  Level Oakland Center
Wed 03:04:47 PM 35.7825 -120.1189 301° West 270 311 22,000 -195 Level Oakland Center
Wed 03:05:48 PM 35.8219 -120.1961 302° West 271 312 21,600 -984 Descending Oakland Center
Wed 03:06:49 PM 35.8589 -120.2861 297° West 290 334 20,000 -1,561 Descending Oakland Center
Wed 03:07:51 PM 35.8972 -120.3811 297° West 310 357 18,400 -1,463 Descending Oakland Center
Wed 03:08:52 PM 35.9336 -120.4689 297° West 294 338 17,000 -1,525 Descending Oakland Center
Wed 03:09:53 PM 35.9678 -120.5531 297° West 279 321 15,300 -1,328 Descending Oakland Center
Wed 03:10:54 PM 36.0028 -120.6386 297° West 282 325 14,300 -829 Descending Oakland Center
Wed 03:11:56 PM 36.0369 -120.7225 297° West 276 318 13,600 -732 Descending Oakland Center
Wed 03:12:57 PM 36.0775 -120.8222 297° West 273 314 12,800 -639 Descending Oakland Center
Wed 03:13:58 PM 36.1103 -120.9056 296° West 271 312 12,300 -488 Descending Oakland Center
Wed 03:15:00 PM 36.1403 -120.9789 297° West 246 283 11,800 -488 Descending Oakland Center
Wed 03:16:01 PM 36.1689 -121.0497 297° West 235 270 11,300 -492 Descending Oakland Center
Wed 03:17:02 PM 36.1919 -121.1275 290° West 240 276 10,800 -541 Descending Oakland Center
Wed 03:18:03 PM 36.2169 -121.2061 292° West 246 283 10,200 -390 Descending Oakland Center
Wed 03:19:05 PM 36.2400 -121.2847 290° West 247 284 10,000 -98 Descending Oakland Center
Wed 03:20:06 PM 36.2664 -121.3589 294° West 239 275 10,000  Level Oakland Center
Wed 03:21:07 PM 36.2908 -121.4408 290° West 250 288 10,000 -439 Level Oakland Center
Wed 03:22:09 PM 36.3222 -121.5378 292° West 255 293 9,100 -927 Descending Oakland Center
Wed 03:23:10 PM 36.3492 -121.6125 294° West 243 280 8,100 -590 Descending Oakland Center
Wed 03:24:11 PM 36.3747 -121.6817 295° West 226 260 7,900 -344 Descending Oakland Center
Wed 03:25:12 PM 36.4306 -121.7000 345° North 216 249 7,400 -537 Descending Oakland Center
Wed 03:26:14 PM 36.4522 -121.6517 61° Northeast 188 216 6,800 -634 Descending Oakland Center
Wed 03:27:15 PM 36.4511 -121.5953 91° East 170 196 6,100 -492 Descending Oakland Center
Wed 03:28:16 PM 36.4969 -121.5856 10° North 184 212 5,800 -1,091 Descending Oakland Center
Wed 03:29:27 PM 36.5333 -121.6833 295° West 241 277 3,700 -1,615 Descending Northern Cal TRACON
Wed 03:30:26 PM 36.5500 -121.7500 287° West 203 234 2,300 -1,424 Descending Northern Cal TRACON

Login

Don't have an account? Register now (free) for customized features, flight alerts, and more!